createdAt,value
2019-01-17T00:03:58.648Z,14.50
2019-01-17T00:09:24.735Z,9.50
2019-01-17T00:14:59.149Z,11.30
2019-01-17T00:20:36.943Z,10.87
2019-01-17T00:25:56.407Z,11.07
2019-01-17T00:31:22.645Z,12.57
2019-01-17T00:36:42.112Z,8.97
2019-01-17T00:42:04.531Z,11.87
2019-01-17T00:47:40.683Z,13.07
2019-01-17T00:53:08.872Z,11.73
2019-01-17T00:58:43.404Z,10.73
2019-01-17T01:04:05.612Z,11.77
2019-01-17T01:09:30.794Z,14.77
2019-01-17T01:15:05.852Z,15.20
2019-01-17T01:20:25.308Z,13.43
2019-01-17T01:25:44.763Z,13.93
2019-01-17T01:31:04.298Z,14.40
2019-01-17T01:36:23.761Z,13.50
2019-01-17T01:41:43.220Z,18.50
2019-01-17T01:47:14.696Z,18.40
2019-01-17T01:52:46.284Z,19.33
2019-01-17T01:58:04.181Z,17.83
2019-01-17T02:03:22.000Z,15.20
2019-01-17T02:08:39.822Z,14.57
2019-01-17T02:13:57.641Z,18.40
2019-01-17T02:19:15.536Z,18.07
2019-01-17T02:24:33.365Z,17.50
2019-01-17T02:29:51.199Z,20.03
2019-01-17T02:35:09.082Z,17.47
2019-01-17T02:40:26.940Z,17.93
2019-01-17T02:45:44.747Z,13.63
2019-01-17T02:51:02.574Z,16.27
2019-01-17T02:56:20.383Z,15.87
2019-01-17T03:01:38.203Z,13.83
2019-01-17T03:06:56.052Z,15.50
2019-01-17T03:12:13.856Z,16.23
2019-01-17T03:17:31.707Z,15.07
2019-01-17T03:22:49.525Z,17.17
2019-01-17T03:28:07.346Z,16.50
2019-01-17T03:33:25.159Z,16.60
2019-01-17T03:38:42.975Z,18.47
2019-01-17T03:44:00.791Z,17.00
2019-01-17T03:49:18.690Z,17.80
2019-01-17T03:54:36.516Z,16.60
2019-01-17T03:59:54.329Z,17.90
2019-01-17T04:05:12.144Z,18.80
2019-01-17T04:10:30.000Z,20.47
2019-01-17T04:15:47.817Z,18.73
2019-01-17T04:21:06.705Z,19.77
2019-01-17T04:26:24.570Z,23.43
2019-01-17T04:31:42.386Z,18.67
2019-01-17T04:37:00.223Z,20.40
2019-01-17T04:42:18.037Z,17.63
2019-01-17T04:47:35.876Z,21.80
2019-01-17T04:52:53.690Z,19.13
2019-01-17T04:58:11.607Z,22.83
2019-01-17T05:03:29.427Z,19.17
2019-01-17T05:08:47.288Z,18.77
2019-01-17T05:14:05.148Z,23.30
2019-01-17T05:19:22.971Z,17.20
2019-01-17T05:24:40.841Z,17.47
2019-01-17T05:29:58.657Z,16.53
2019-01-17T05:35:16.468Z,17.43
2019-01-17T05:40:35.373Z,15.10
2019-01-17T05:45:53.178Z,14.77
2019-01-17T05:51:11.012Z,19.83
2019-01-17T05:56:28.838Z,17.37
2019-01-17T06:01:46.646Z,14.73
2019-01-17T06:07:04.456Z,13.60
2019-01-17T06:12:22.335Z,14.37
2019-01-17T06:17:40.164Z,16.00
2019-01-17T06:22:57.991Z,14.93
2019-01-17T06:28:15.804Z,16.83
2019-01-17T06:33:33.632Z,14.73
2019-01-17T06:38:51.447Z,11.40
2019-01-17T06:44:09.266Z,18.90
2019-01-17T06:49:27.100Z,12.67
2019-01-17T06:54:44.974Z,14.60
2019-01-17T07:00:03.264Z,16.07
2019-01-17T07:05:22.908Z,18.83
2019-01-17T07:10:40.811Z,13.97
2019-01-17T07:15:58.636Z,12.03
2019-01-17T07:21:16.463Z,15.67
2019-01-17T07:26:34.310Z,14.90
2019-01-17T07:31:52.131Z,14.50
2019-01-17T07:37:09.948Z,13.23
2019-01-17T07:42:27.762Z,14.00
2019-01-17T07:47:45.583Z,18.80
2019-01-17T07:53:03.463Z,17.40
2019-01-17T07:58:23.183Z,13.70
2019-01-17T08:03:41.008Z,13.10
2019-01-17T08:08:58.944Z,13.27
2019-01-17T08:14:16.803Z,13.90
2019-01-17T08:19:34.611Z,14.43
2019-01-17T08:24:54.216Z,12.90
2019-01-17T08:30:26.151Z,16.37
2019-01-17T08:35:43.959Z,12.17
2019-01-17T08:41:01.829Z,14.23
2019-01-17T08:46:19.614Z,12.27
2019-01-17T08:51:37.548Z,12.60
2019-01-17T08:56:55.495Z,9.50
2019-01-17T09:02:13.239Z,11.30
2019-01-17T09:07:31.211Z,12.97
2019-01-17T09:12:49.288Z,11.50
2019-01-17T09:18:07.132Z,10.03
2019-01-17T09:23:24.991Z,8.37
2019-01-17T09:28:42.851Z,8.90
2019-01-17T09:34:00.715Z,9.47
2019-01-17T09:39:18.665Z,10.77
2019-01-17T09:44:36.499Z,8.40
2019-01-17T09:49:54.306Z,9.67
2019-01-17T09:55:12.171Z,9.90
2019-01-17T10:00:30.254Z,10.37
2019-01-17T10:05:48.079Z,7.53
2019-01-17T10:11:05.896Z,7.73
2019-01-17T10:16:29.928Z,6.67
2019-01-17T10:22:09.119Z,6.03
2019-01-17T10:27:45.364Z,7.17
2019-01-17T10:33:21.598Z,8.13
2019-01-17T10:38:57.736Z,7.80
2019-01-17T10:44:21.674Z,5.77
2019-01-17T10:49:45.873Z,4.43
2019-01-17T10:55:28.161Z,3.97
2019-01-17T11:01:08.558Z,4.00
2019-01-17T11:06:42.251Z,5.65
2019-01-17T11:12:20.083Z,4.23
2019-01-17T11:17:56.915Z,5.03
2019-01-17T11:23:30.174Z,5.60
2019-01-17T11:28:56.627Z,11.73
2019-01-17T11:34:18.119Z,4.97
2019-01-17T11:39:45.234Z,4.40
2019-01-17T11:45:09.622Z,5.70
2019-01-17T11:50:49.986Z,10.63
2019-01-17T11:56:23.403Z,5.43
2019-01-17T12:01:50.645Z,4.37
2019-01-17T12:07:14.408Z,3.60
2019-01-17T12:12:35.637Z,6.57
2019-01-17T12:17:53.720Z,3.03
2019-01-17T12:23:13.519Z,3.90
2019-01-17T12:28:31.719Z,4.67
2019-01-17T12:33:49.526Z,4.47
2019-01-17T12:39:13.396Z,3.47
2019-01-17T12:44:32.592Z,3.33
2019-01-17T12:49:50.458Z,5.40
2019-01-17T12:55:09.578Z,10.33
2019-01-17T13:00:27.463Z,12.13
2019-01-17T13:05:45.491Z,2.97
2019-01-17T13:11:03.311Z,5.17
2019-01-17T13:16:21.142Z,4.20
2019-01-17T13:21:39.080Z,5.13
2019-01-17T13:27:00.869Z,3.97
2019-01-17T13:32:17.815Z,3.47
2019-01-17T13:37:36.496Z,5.73
2019-01-17T13:42:54.502Z,3.43
2019-01-17T13:48:12.367Z,5.83
2019-01-17T13:53:30.184Z,7.13
2019-01-17T13:58:48.217Z,4.50
2019-01-17T14:04:06.035Z,4.00
2019-01-17T14:09:24.163Z,5.97
2019-01-17T14:14:41.988Z,3.53
2019-01-17T14:20:00.000Z,4.30
2019-01-17T14:25:18.596Z,4.63
2019-01-17T14:30:36.459Z,4.30
2019-01-17T14:35:54.347Z,3.17
2019-01-17T14:41:12.173Z,3.03
2019-01-17T14:46:30.531Z,3.60
2019-01-17T14:51:48.358Z,2.83
2019-01-17T14:57:06.203Z,4.30
2019-01-17T15:02:24.065Z,6.43
2019-01-17T15:07:41.954Z,7.13
2019-01-17T15:12:59.799Z,6.30
2019-01-17T15:18:17.680Z,5.30
2019-01-17T15:23:35.494Z,4.03
2019-01-17T15:28:53.349Z,9.47
2019-01-17T15:34:11.165Z,7.10
2019-01-17T15:39:28.989Z,5.90
2019-01-17T15:44:46.808Z,5.67
2019-01-17T15:50:07.903Z,11.10
2019-01-17T15:55:25.738Z,5.40
2019-01-17T16:00:43.651Z,7.13
2019-01-17T16:06:01.551Z,6.17
2019-01-17T16:11:19.369Z,6.33
2019-01-17T16:16:37.201Z,5.90
2019-01-17T16:21:55.182Z,4.07
2019-01-17T16:27:12.967Z,6.53
2019-01-17T16:32:30.871Z,4.77
2019-01-17T16:37:48.835Z,2.80
2019-01-17T16:43:06.678Z,6.50
2019-01-17T16:48:24.521Z,4.10
2019-01-17T16:53:42.403Z,4.83
2019-01-17T16:59:00.220Z,7.73
2019-01-17T17:04:19.210Z,8.77
2019-01-17T17:09:37.021Z,7.67
2019-01-17T17:14:54.900Z,1.87
2019-01-17T17:20:21.134Z,6.60
2019-01-17T17:25:38.950Z,6.47
2019-01-17T17:30:56.765Z,3.30
2019-01-17T17:36:14.575Z,1.80
2019-01-17T17:41:32.383Z,3.50
2019-01-17T17:46:50.480Z,4.23
2019-01-17T17:52:08.303Z,1.63
2019-01-17T17:57:26.183Z,8.90
2019-01-17T18:02:44.068Z,2.93
2019-01-17T18:08:01.874Z,6.40
2019-01-17T18:13:19.731Z,5.77
2019-01-17T18:18:37.547Z,3.07
2019-01-17T18:23:55.370Z,5.37
2019-01-17T18:29:13.223Z,5.13
2019-01-17T18:34:31.043Z,6.67
2019-01-17T18:39:48.864Z,5.63
2019-01-17T18:45:10.282Z,3.60
2019-01-17T18:50:30.944Z,3.57
2019-01-17T18:55:48.818Z,4.27
2019-01-17T19:01:06.899Z,4.83
2019-01-17T19:06:24.842Z,2.47
2019-01-17T19:11:42.831Z,5.23
2019-01-17T19:17:00.942Z,4.43
2019-01-17T19:22:20.008Z,4.90
2019-01-17T19:27:37.968Z,6.60
2019-01-17T19:32:56.019Z,6.37
2019-01-17T19:38:14.139Z,7.73
2019-01-17T19:43:32.203Z,5.53
2019-01-17T19:48:50.217Z,5.37
2019-01-17T19:54:08.171Z,6.57
2019-01-17T19:59:25.994Z,5.73
2019-01-17T20:04:43.970Z,6.83
2019-01-17T20:10:01.738Z,5.73
2019-01-17T20:15:21.378Z,9.10
2019-01-17T20:20:39.250Z,8.47
2019-01-17T20:25:57.205Z,9.73
2019-01-17T20:31:15.008Z,9.40
2019-01-17T20:36:32.831Z,10.20
2019-01-17T20:41:50.647Z,9.83
2019-01-17T20:47:08.535Z,9.40
2019-01-17T20:52:26.348Z,10.43
2019-01-17T20:57:45.639Z,13.03
2019-01-17T21:03:03.523Z,11.37
2019-01-17T21:08:21.340Z,13.33
2019-01-17T21:13:39.219Z,13.03
2019-01-17T21:19:00.194Z,14.36
2019-01-17T21:24:18.019Z,14.73
2019-01-17T21:29:35.839Z,11.83
2019-01-17T21:34:53.674Z,11.53
2019-01-17T21:40:16.880Z,9.87
2019-01-17T21:45:34.735Z,10.37
2019-01-17T21:50:52.552Z,8.10
2019-01-17T21:56:11.982Z,8.07
2019-01-17T22:01:29.771Z,9.07
2019-01-17T22:06:47.591Z,11.03
2019-01-17T22:12:05.415Z,8.43
2019-01-17T22:17:23.238Z,10.00
2019-01-17T22:22:42.159Z,5.27
2019-01-17T22:27:59.976Z,6.83
2019-01-17T22:33:17.783Z,8.07
2019-01-17T22:38:35.635Z,9.13
2019-01-17T22:43:53.839Z,9.63
2019-01-17T22:49:11.648Z,10.97
2019-01-17T22:54:29.472Z,11.67
2019-01-17T22:59:47.287Z,6.20
2019-01-17T23:05:05.278Z,10.87
2019-01-17T23:10:23.086Z,9.87
2019-01-17T23:15:40.916Z,7.57
2019-01-17T23:20:58.720Z,7.90
2019-01-17T23:26:16.539Z,10.30
2019-01-17T23:31:34.534Z,11.80
2019-01-17T23:36:52.346Z,6.07
2019-01-17T23:42:11.827Z,10.20
2019-01-17T23:47:29.739Z,8.50
2019-01-17T23:52:47.588Z,12.53
2019-01-17T23:58:05.423Z,6.90
